sensor_id;sensor_type;location;lat;lon;timestamp;temperature;humidity
1534;DHT22;760;48.822;9.304;2023-11-22T04:05:16;4.70;99.90
1534;DHT22;760;48.822;9.304;2023-11-22T04:07:41;4.70;99.90
1534;DHT22;760;48.822;9.304;2023-11-22T04:10:07;4.70;99.90
1534;DHT22;760;48.822;9.304;2023-11-22T04:12:33;4.70;99.90
1534;DHT22;760;48.822;9.304;2023-11-22T04:14:58;4.70;99.90
1534;DHT22;760;48.822;9.304;2023-11-22T04:17:24;4.70;99.90
1534;DHT22;760;48.822;9.304;2023-11-22T04:19:50;4.70;99.90
1534;DHT22;760;48.822;9.304;2023-11-22T04:22:15;4.70;99.90
1534;DHT22;760;48.822;9.304;2023-11-22T04:24:41;4.70;99.90
1534;DHT22;760;48.822;9.304;2023-11-22T04:27:08;4.70;99.90
1534;DHT22;760;48.822;9.304;2023-11-22T04:29:33;4.70;99.90
1534;DHT22;760;48.822;9.304;2023-11-22T04:31:59;4.70;99.90
1534;DHT22;760;48.822;9.304;2023-11-22T04:34:24;4.70;99.90
1534;DHT22;760;48.822;9.304;2023-11-22T04:36:50;4.60;99.90
1534;DHT22;760;48.822;9.304;2023-11-22T04:39:16;4.60;99.90
1534;DHT22;760;48.822;9.304;2023-11-22T04:41:43;4.50;99.90
1534;DHT22;760;48.822;9.304;2023-11-22T04:44:08;4.50;99.90
1534;DHT22;760;48.822;9.304;2023-11-22T04:46:34;4.50;99.90
1534;DHT22;760;48.822;9.304;2023-11-22T04:49:00;4.40;99.90
1534;DHT22;760;48.822;9.304;2023-11-22T04:51:26;4.40;99.90
1534;DHT22;760;48.822;9.304;2023-11-22T04:53:54;4.30;99.90
1534;DHT22;760;48.822;9.304;2023-11-22T04:56:20;4.30;99.90
1534;DHT22;760;48.822;9.304;2023-11-22T04:58:45;4.30;99.90
1534;DHT22;760;48.822;9.304;2023-11-22T05:01:11;4.30;99.90
1534;DHT22;760;48.822;9.304;2023-11-22T05:03:36;4.20;99.90
1534;DHT22;760;48.822;9.304;2023-11-22T05:06:03;4.20;99.90
1534;DHT22;760;48.822;9.304;2023-11-22T05:08:29;4.20;99.90
1534;DHT22;760;48.822;9.304;2023-11-22T05:10:55;4.20;99.90
1534;DHT22;760;48.822;9.304;2023-11-22T05:13:21;4.30;99.90
1534;DHT22;760;48.822;9.304;2023-11-22T05:15:47;4.20;99.90
1534;DHT22;760;48.822;9.304;2023-11-22T05:18:12;4.30;99.90
1534;DHT22;760;48.822;9.304;2023-11-22T05:20:38;4.30;99.90
1534;DHT22;760;48.822;9.304;2023-11-22T05:23:04;4.30;99.90
1534;DHT22;760;48.822;9.304;2023-11-22T05:25:30;4.30;99.90
1534;DHT22;760;48.822;9.304;2023-11-22T05:27:55;4.40;99.90
1534;DHT22;760;48.822;9.304;2023-11-22T05:30:21;4.40;99.90
1534;DHT22;760;48.822;9.304;2023-11-22T05:32:48;4.40;99.90
1534;DHT22;760;48.822;9.304;2023-11-22T05:35:14;4.40;99.90
1534;DHT22;760;48.822;9.304;2023-11-22T05:37:40;4.40;99.90
1534;DHT22;760;48.822;9.304;2023-11-22T05:40:06;4.40;99.90
1534;DHT22;760;48.822;9.304;2023-11-22T05:42:35;4.40;99.90
1534;DHT22;760;48.822;9.304;2023-11-22T05:45:01;4.50;99.90
1534;DHT22;760;48.822;9.304;2023-11-22T05:47:26;4.50;99.90
1534;DHT22;760;48.822;9.304;2023-11-22T05:49:52;4.50;99.90
1534;DHT22;760;48.822;9.304;2023-11-22T05:52:17;4.60;99.90
1534;DHT22;760;48.822;9.304;2023-11-22T05:54:44;4.60;99.90
1534;DHT22;760;48.822;9.304;2023-11-22T05:57:09;4.60;99.90
1534;DHT22;760;48.822;9.304;2023-11-22T05:59:36;4.60;99.90
1534;DHT22;760;48.822;9.304;2023-11-22T06:02:01;4.60;99.90
1534;DHT22;760;48.822;9.304;2023-11-22T06:04:27;4.60;99.90
1534;DHT22;760;48.822;9.304;2023-11-22T06:06:52;4.60;99.90
1534;DHT22;760;48.822;9.304;2023-11-22T06:09:18;4.60;99.90
1534;DHT22;760;48.822;9.304;2023-11-22T06:11:44;4.60;99.90
1534;DHT22;760;48.822;9.304;2023-11-22T06:14:09;4.60;99.90
1534;DHT22;760;48.822;9.304;2023-11-22T06:16:35;4.60;99.90
1534;DHT22;760;48.822;9.304;2023-11-22T06:19:01;4.60;99.90
1534;DHT22;760;48.822;9.304;2023-11-22T06:21:26;4.60;99.90
1534;DHT22;760;48.822;9.304;2023-11-22T06:23:53;4.60;99.90
1534;DHT22;760;48.822;9.304;2023-11-22T06:26:20;4.70;99.90
1534;DHT22;760;48.822;9.304;2023-11-22T06:28:46;4.60;99.90
1534;DHT22;760;48.822;9.304;2023-11-22T06:31:14;4.70;99.90
1534;DHT22;760;48.822;9.304;2023-11-22T06:33:40;4.60;99.90
1534;DHT22;760;48.822;9.304;2023-11-22T06:36:05;4.70;99.90
1534;DHT22;760;48.822;9.304;2023-11-22T06:38:32;4.60;99.90
1534;DHT22;760;48.822;9.304;2023-11-22T06:40:58;4.60;99.90
1534;DHT22;760;48.822;9.304;2023-11-22T06:43:23;4.60;99.90
1534;DHT22;760;48.822;9.304;2023-11-22T06:45:49;4.60;99.90
1534;DHT22;760;48.822;9.304;2023-11-22T06:48:14;4.50;99.90
1534;DHT22;760;48.822;9.304;2023-11-22T06:50:40;4.50;99.90
1534;DHT22;760;48.822;9.304;2023-11-22T06:53:05;4.50;99.90
1534;DHT22;760;48.822;9.304;2023-11-22T06:55:31;4.50;99.90
1534;DHT22;760;48.822;9.304;2023-11-22T06:57:58;4.50;99.90
1534;DHT22;760;48.822;9.304;2023-11-22T07:00:24;4.50;99.90
1534;DHT22;760;48.822;9.304;2023-11-22T07:02:51;4.40;99.90
1534;DHT22;760;48.822;9.304;2023-11-22T07:05:17;4.40;99.90
1534;DHT22;760;48.822;9.304;2023-11-22T07:07:44;4.40;99.90
1534;DHT22;760;48.822;9.304;2023-11-22T07:10:10;4.40;99.90
1534;DHT22;760;48.822;9.304;2023-11-22T07:12:36;4.40;99.90
1534;DHT22;760;48.822;9.304;2023-11-22T07:15:03;4.40;99.90
1534;DHT22;760;48.822;9.304;2023-11-22T07:17:31;4.40;99.90
1534;DHT22;760;48.822;9.304;2023-11-22T07:19:58;4.40;99.90
1534;DHT22;760;48.822;9.304;2023-11-22T07:22:24;4.40;99.90
1534;DHT22;760;48.822;9.304;2023-11-22T07:24:50;4.40;99.90
1534;DHT22;760;48.822;9.304;2023-11-22T07:27:20;4.30;99.90
1534;DHT22;760;48.822;9.304;2023-11-22T07:29:46;4.30;99.90
1534;DHT22;760;48.822;9.304;2023-11-22T07:32:12;4.30;99.90
1534;DHT22;760;48.822;9.304;2023-11-22T07:34:39;4.20;99.90
1534;DHT22;760;48.822;9.304;2023-11-22T07:37:06;4.20;99.90
1534;DHT22;760;48.822;9.304;2023-11-22T07:39:36;4.20;99.90
1534;DHT22;760;48.822;9.304;2023-11-22T07:42:05;4.10;99.90
1534;DHT22;760;48.822;9.304;2023-11-22T07:44:35;4.20;99.90
1534;DHT22;760;48.822;9.304;2023-11-22T07:47:01;4.10;99.90
1534;DHT22;760;48.822;9.304;2023-11-22T07:49:27;4.10;99.90
1534;DHT22;760;48.822;9.304;2023-11-22T07:51:54;4.10;99.90
1534;DHT22;760;48.822;9.304;2023-11-22T07:54:21;4.10;99.90
1534;DHT22;760;48.822;9.304;2023-11-22T07:56:51;4.10;99.90
1534;DHT22;760;48.822;9.304;2023-11-22T07:59:20;4.10;99.90
1534;DHT22;760;48.822;9.304;2023-11-22T08:01:46;4.10;99.90
1534;DHT22;760;48.822;9.304;2023-11-22T08:04:15;4.10;99.90
1534;DHT22;760;48.822;9.304;2023-11-22T08:06:42;4.20;99.90
1534;DHT22;760;48.822;9.304;2023-11-22T08:09:08;4.20;99.90
1534;DHT22;760;48.822;9.304;2023-11-22T08:11:35;4.10;99.90
1534;DHT22;760;48.822;9.304;2023-11-22T08:14:01;4.00;99.90
1534;DHT22;760;48.822;9.304;2023-11-22T08:16:26;4.00;99.90
1534;DHT22;760;48.822;9.304;2023-11-22T08:18:52;4.00;99.90
1534;DHT22;760;48.822;9.304;2023-11-22T08:21:18;3.90;99.90
1534;DHT22;760;48.822;9.304;2023-11-22T08:23:45;3.80;99.90
1534;DHT22;760;48.822;9.304;2023-11-22T08:26:12;3.70;99.90
1534;DHT22;760;48.822;9.304;2023-11-22T08:28:38;3.70;99.90
1534;DHT22;760;48.822;9.304;2023-11-22T08:31:04;3.80;99.90
1534;DHT22;760;48.822;9.304;2023-11-22T08:33:30;3.80;99.90
1534;DHT22;760;48.822;9.304;2023-11-22T08:35:55;3.80;99.90
1534;DHT22;760;48.822;9.304;2023-11-22T08:38:24;3.80;99.90
1534;DHT22;760;48.822;9.304;2023-11-22T08:40:50;3.80;99.90
1534;DHT22;760;48.822;9.304;2023-11-22T08:43:16;3.80;99.90
1534;DHT22;760;48.822;9.304;2023-11-22T08:45:41;3.80;99.90
1534;DHT22;760;48.822;9.304;2023-11-22T08:48:09;3.80;99.90
1534;DHT22;760;48.822;9.304;2023-11-22T08:50:35;3.80;99.90
1534;DHT22;760;48.822;9.304;2023-11-22T08:53:00;3.80;99.90
1534;DHT22;760;48.822;9.304;2023-11-22T08:55:26;3.80;99.90
1534;DHT22;760;48.822;9.304;2023-11-22T08:57:51;3.80;99.90
1534;DHT22;760;48.822;9.304;2023-11-22T09:00:17;3.80;99.90
1534;DHT22;760;48.822;9.304;2023-11-22T09:02:48;3.90;99.90
1534;DHT22;760;48.822;9.304;2023-11-22T09:05:14;3.90;99.90
1534;DHT22;760;48.822;9.304;2023-11-22T09:07:44;3.90;99.90
1534;DHT22;760;48.822;9.304;2023-11-22T09:10:10;3.90;99.90
1534;DHT22;760;48.822;9.304;2023-11-22T09:12:39;3.90;99.90
1534;DHT22;760;48.822;9.304;2023-11-22T09:15:07;3.90;99.90
1534;DHT22;760;48.822;9.304;2023-11-22T09:17:36;4.00;99.90
1534;DHT22;760;48.822;9.304;2023-11-22T09:20:05;4.00;99.90
1534;DHT22;760;48.822;9.304;2023-11-22T09:22:32;4.10;99.90
1534;DHT22;760;48.822;9.304;2023-11-22T09:24:57;4.00;99.90
1534;DHT22;760;48.822;9.304;2023-11-22T09:27:23;4.10;99.90
1534;DHT22;760;48.822;9.304;2023-11-22T09:29:49;4.10;99.90
1534;DHT22;760;48.822;9.304;2023-11-22T09:32:15;4.10;99.90
1534;DHT22;760;48.822;9.304;2023-11-22T09:34:40;4.10;99.90
1534;DHT22;760;48.822;9.304;2023-11-22T09:37:09;4.10;99.90
1534;DHT22;760;48.822;9.304;2023-11-22T09:39:35;4.20;99.90
1534;DHT22;760;48.822;9.304;2023-11-22T09:42:01;4.20;99.90
1534;DHT22;760;48.822;9.304;2023-11-22T09:44:28;4.20;99.90
1534;DHT22;760;48.822;9.304;2023-11-22T09:46:54;4.30;99.90
1534;DHT22;760;48.822;9.304;2023-11-22T09:49:24;4.30;99.90
1534;DHT22;760;48.822;9.304;2023-11-22T09:51:54;4.40;99.90
1534;DHT22;760;48.822;9.304;2023-11-22T09:54:20;4.40;99.90
1534;DHT22;760;48.822;9.304;2023-11-22T09:56:50;4.40;99.90
1534;DHT22;760;48.822;9.304;2023-11-22T09:59:18;4.50;99.90
1534;DHT22;760;48.822;9.304;2023-11-22T10:01:47;4.50;99.90
1534;DHT22;760;48.822;9.304;2023-11-22T10:04:14;4.50;99.90
1534;DHT22;760;48.822;9.304;2023-11-22T10:06:40;4.60;99.90
1534;DHT22;760;48.822;9.304;2023-11-22T10:09:11;4.60;99.90
1534;DHT22;760;48.822;9.304;2023-11-22T10:11:39;4.60;99.90
1534;DHT22;760;48.822;9.304;2023-11-22T10:14:09;4.70;99.90
1534;DHT22;760;48.822;9.304;2023-11-22T10:16:34;4.70;99.90
1534;DHT22;760;48.822;9.304;2023-11-22T10:19:00;4.70;99.90
1534;DHT22;760;48.822;9.304;2023-11-22T10:21:28;4.70;99.90
1534;DHT22;760;48.822;9.304;2023-11-22T10:23:56;4.70;99.90
1534;DHT22;760;48.822;9.304;2023-11-22T10:26:23;4.70;99.90
1534;DHT22;760;48.822;9.304;2023-11-22T10:28:52;4.60;99.90
1534;DHT22;760;48.822;9.304;2023-11-22T10:31:18;4.60;99.90
1534;DHT22;760;48.822;9.304;2023-11-22T10:33:45;4.60;99.90
1534;DHT22;760;48.822;9.304;2023-11-22T10:36:11;4.60;99.90
1534;DHT22;760;48.822;9.304;2023-11-22T10:38:38;4.70;99.90
1534;DHT22;760;48.822;9.304;2023-11-22T10:41:10;4.80;99.90
1534;DHT22;760;48.822;9.304;2023-11-22T10:43:37;4.80;99.90
1534;DHT22;760;48.822;9.304;2023-11-22T10:46:03;4.80;99.90
1534;DHT22;760;48.822;9.304;2023-11-22T10:48:32;4.80;99.90
1534;DHT22;760;48.822;9.304;2023-11-22T10:51:01;4.80;99.90
1534;DHT22;760;48.822;9.304;2023-11-22T10:53:36;4.80;99.90
1534;DHT22;760;48.822;9.304;2023-11-22T10:56:17;4.80;99.90
1534;DHT22;760;48.822;9.304;2023-11-22T10:58:52;4.80;99.90
1534;DHT22;760;48.822;9.304;2023-11-22T11:01:24;4.80;99.90
1534;DHT22;760;48.822;9.304;2023-11-22T11:04:09;4.80;99.90
1534;DHT22;760;48.822;9.304;2023-11-22T11:06:37;4.90;99.90
1534;DHT22;760;48.822;9.304;2023-11-22T11:09:05;4.90;99.90
1534;DHT22;760;48.822;9.304;2023-11-22T11:11:36;5.00;99.90
1534;DHT22;760;48.822;9.304;2023-11-22T11:14:03;5.00;99.90
1534;DHT22;760;48.822;9.304;2023-11-22T11:16:32;5.10;99.90
1534;DHT22;760;48.822;9.304;2023-11-22T11:19:00;5.10;99.90
1534;DHT22;760;48.822;9.304;2023-11-22T11:21:27;5.10;99.90
1534;DHT22;760;48.822;9.304;2023-11-22T11:23:52;5.10;99.90
1534;DHT22;760;48.822;9.304;2023-11-22T11:26:20;5.10;99.90
1534;DHT22;760;48.822;9.304;2023-11-22T11:28:51;5.10;99.90
1534;DHT22;760;48.822;9.304;2023-11-22T11:31:21;5.10;99.90
1534;DHT22;760;48.822;9.304;2023-11-22T11:36:28;5.20;99.90
1534;DHT22;760;48.822;9.304;2023-11-22T11:39:05;5.20;99.90
1534;DHT22;760;48.822;9.304;2023-11-22T11:41:35;5.10;99.90
1534;DHT22;760;48.822;9.304;2023-11-22T11:44:07;5.10;99.90
1534;DHT22;760;48.822;9.304;2023-11-22T11:46:34;5.10;99.90
1534;DHT22;760;48.822;9.304;2023-11-22T11:48:59;5.10;99.90
1534;DHT22;760;48.822;9.304;2023-11-22T11:51:28;5.10;99.90
1534;DHT22;760;48.822;9.304;2023-11-22T11:53:55;5.10;99.90
1534;DHT22;760;48.822;9.304;2023-11-22T11:56:21;5.10;99.90
1534;DHT22;760;48.822;9.304;2023-11-22T11:58:49;5.00;99.90
1534;DHT22;760;48.822;9.304;2023-11-22T12:01:15;5.00;99.90
1534;DHT22;760;48.822;9.304;2023-11-22T12:03:48;5.00;99.90
1534;DHT22;760;48.822;9.304;2023-11-22T12:06:18;5.00;99.90
1534;DHT22;760;48.822;9.304;2023-11-22T12:08:45;5.00;99.90
1534;DHT22;760;48.822;9.304;2023-11-22T12:11:11;5.00;99.90
1534;DHT22;760;48.822;9.304;2023-11-22T12:13:38;5.00;99.90
1534;DHT22;760;48.822;9.304;2023-11-22T12:16:05;4.90;99.90
1534;DHT22;760;48.822;9.304;2023-11-22T12:18:42;4.90;99.90
1534;DHT22;760;48.822;9.304;2023-11-22T12:21:11;4.80;99.90
1534;DHT22;760;48.822;9.304;2023-11-22T12:23:41;4.80;99.90
1534;DHT22;760;48.822;9.304;2023-11-22T12:26:14;4.70;99.90
1534;DHT22;760;48.822;9.304;2023-11-22T12:28:41;4.70;99.90
1534;DHT22;760;48.822;9.304;2023-11-22T12:31:14;4.70;99.90
1534;DHT22;760;48.822;9.304;2023-11-22T12:33:41;4.70;99.90
1534;DHT22;760;48.822;9.304;2023-11-22T12:36:08;4.70;99.90
1534;DHT22;760;48.822;9.304;2023-11-22T12:38:42;4.80;99.90
1534;DHT22;760;48.822;9.304;2023-11-22T12:41:07;4.80;99.90
1534;DHT22;760;48.822;9.304;2023-11-22T12:43:34;4.80;99.90
1534;DHT22;760;48.822;9.304;2023-11-22T12:46:04;4.90;99.90
1534;DHT22;760;48.822;9.304;2023-11-22T12:48:29;4.90;99.90
1534;DHT22;760;48.822;9.304;2023-11-22T12:50:56;4.90;99.90
1534;DHT22;760;48.822;9.304;2023-11-22T12:53:23;5.00;99.90
1534;DHT22;760;48.822;9.304;2023-11-22T12:55:52;5.00;99.90
1534;DHT22;760;48.822;9.304;2023-11-22T12:58:19;4.90;99.90
1534;DHT22;760;48.822;9.304;2023-11-22T13:00:45;4.80;99.90
1534;DHT22;760;48.822;9.304;2023-11-22T13:03:11;4.80;99.90
1534;DHT22;760;48.822;9.304;2023-11-22T13:05:44;4.70;99.90
1534;DHT22;760;48.822;9.304;2023-11-22T13:08:13;4.70;99.90
1534;DHT22;760;48.822;9.304;2023-11-22T13:10:46;4.70;99.90
1534;DHT22;760;48.822;9.304;2023-11-22T13:13:14;4.70;99.90
1534;DHT22;760;48.822;9.304;2023-11-22T13:15:39;4.70;99.90
1534;DHT22;760;48.822;9.304;2023-11-22T13:18:06;4.60;99.90
1534;DHT22;760;48.822;9.304;2023-11-22T13:20:33;4.60;99.90
1534;DHT22;760;48.822;9.304;2023-11-22T13:23:00;4.60;99.90
1534;DHT22;760;48.822;9.304;2023-11-22T13:25:26;4.60;99.90
1534;DHT22;760;48.822;9.304;2023-11-22T13:27:52;4.60;99.90
1534;DHT22;760;48.822;9.304;2023-11-22T13:30:19;4.70;99.90
1534;DHT22;760;48.822;9.304;2023-11-22T13:32:49;4.70;99.90
1534;DHT22;760;48.822;9.304;2023-11-22T13:35:15;4.70;99.90
1534;DHT22;760;48.822;9.304;2023-11-22T13:37:42;4.60;99.90
1534;DHT22;760;48.822;9.304;2023-11-22T13:40:13;4.60;99.90
1534;DHT22;760;48.822;9.304;2023-11-22T13:42:46;4.60;99.90
1534;DHT22;760;48.822;9.304;2023-11-22T13:45:14;4.50;99.90
1534;DHT22;760;48.822;9.304;2023-11-22T13:47:43;4.50;99.90
1534;DHT22;760;48.822;9.304;2023-11-22T13:50:10;4.50;99.90
1534;DHT22;760;48.822;9.304;2023-11-22T13:52:38;4.50;99.90
1534;DHT22;760;48.822;9.304;2023-11-22T13:55:04;4.50;99.90
1534;DHT22;760;48.822;9.304;2023-11-22T13:57:33;4.50;99.90
1534;DHT22;760;48.822;9.304;2023-11-22T13:59:59;4.50;99.90
1534;DHT22;760;48.822;9.304;2023-11-22T14:02:24;4.50;99.90
1534;DHT22;760;48.822;9.304;2023-11-22T14:04:50;4.50;99.90
1534;DHT22;760;48.822;9.304;2023-11-22T14:07:17;4.40;99.90
1534;DHT22;760;48.822;9.304;2023-11-22T14:09:43;4.50;99.90
1534;DHT22;760;48.822;9.304;2023-11-22T14:12:12;4.40;99.90
1534;DHT22;760;48.822;9.304;2023-11-22T14:14:37;4.40;99.90
1534;DHT22;760;48.822;9.304;2023-11-22T14:17:03;4.50;99.90
1534;DHT22;760;48.822;9.304;2023-11-22T14:19:29;4.40;99.90
1534;DHT22;760;48.822;9.304;2023-11-22T14:21:55;4.40;99.90
1534;DHT22;760;48.822;9.304;2023-11-22T14:24:20;4.40;99.90
1534;DHT22;760;48.822;9.304;2023-11-22T14:26:46;4.30;99.90
1534;DHT22;760;48.822;9.304;2023-11-22T14:29:14;4.30;99.90
1534;DHT22;760;48.822;9.304;2023-11-22T14:31:40;4.30;99.90
1534;DHT22;760;48.822;9.304;2023-11-22T14:34:06;4.30;99.90
1534;DHT22;760;48.822;9.304;2023-11-22T14:36:32;4.30;99.90
1534;DHT22;760;48.822;9.304;2023-11-22T14:38:57;4.30;99.90
1534;DHT22;760;48.822;9.304;2023-11-22T14:41:23;4.30;99.90
1534;DHT22;760;48.822;9.304;2023-11-22T14:43:49;4.30;99.90
1534;DHT22;760;48.822;9.304;2023-11-22T14:46:14;4.30;99.90
1534;DHT22;760;48.822;9.304;2023-11-22T14:48:40;4.30;99.90
1534;DHT22;760;48.822;9.304;2023-11-22T14:51:06;4.30;99.90
1534;DHT22;760;48.822;9.304;2023-11-22T14:53:34;4.20;99.90
1534;DHT22;760;48.822;9.304;2023-11-22T14:56:00;4.20;99.90
1534;DHT22;760;48.822;9.304;2023-11-22T14:58:26;4.20;99.90
1534;DHT22;760;48.822;9.304;2023-11-22T15:00:52;4.20;99.90
1534;DHT22;760;48.822;9.304;2023-11-22T15:03:17;4.20;99.90
1534;DHT22;760;48.822;9.304;2023-11-22T15:05:43;4.20;99.90
1534;DHT22;760;48.822;9.304;2023-11-22T15:08:08;4.10;99.90
1534;DHT22;760;48.822;9.304;2023-11-22T15:10:34;4.10;99.90
1534;DHT22;760;48.822;9.304;2023-11-22T15:13:00;4.10;99.90
1534;DHT22;760;48.822;9.304;2023-11-22T15:15:27;4.10;99.90
1534;DHT22;760;48.822;9.304;2023-11-22T15:17:53;4.10;99.90
1534;DHT22;760;48.822;9.304;2023-11-22T15:20:19;4.10;99.90
1534;DHT22;760;48.822;9.304;2023-11-22T15:22:44;4.20;99.90
1534;DHT22;760;48.822;9.304;2023-11-22T15:25:11;4.20;99.90
1534;DHT22;760;48.822;9.304;2023-11-22T15:27:36;4.20;99.90
1534;DHT22;760;48.822;9.304;2023-11-22T15:30:02;4.20;99.90
1534;DHT22;760;48.822;9.304;2023-11-22T15:32:28;4.20;99.90
1534;DHT22;760;48.822;9.304;2023-11-22T15:34:54;4.20;99.90
1534;DHT22;760;48.822;9.304;2023-11-22T15:37:20;4.20;99.90
1534;DHT22;760;48.822;9.304;2023-11-22T15:39:45;4.20;99.90
1534;DHT22;760;48.822;9.304;2023-11-22T15:42:11;4.20;99.90
1534;DHT22;760;48.822;9.304;2023-11-22T15:44:37;4.20;99.90
1534;DHT22;760;48.822;9.304;2023-11-22T15:47:03;4.20;99.90
1534;DHT22;760;48.822;9.304;2023-11-22T15:49:36;4.20;99.90
1534;DHT22;760;48.822;9.304;2023-11-22T15:52:01;4.20;99.90
1534;DHT22;760;48.822;9.304;2023-11-22T15:54:27;4.10;99.90
1534;DHT22;760;48.822;9.304;2023-11-22T15:56:53;4.10;99.90
1534;DHT22;760;48.822;9.304;2023-11-22T15:59:19;4.10;99.90
1534;DHT22;760;48.822;9.304;2023-11-22T16:01:44;4.10;99.90
1534;DHT22;760;48.822;9.304;2023-11-22T16:04:10;4.10;99.90
1534;DHT22;760;48.822;9.304;2023-11-22T16:06:37;4.10;99.90
1534;DHT22;760;48.822;9.304;2023-11-22T16:09:03;4.10;99.90
1534;DHT22;760;48.822;9.304;2023-11-22T16:11:31;4.10;99.90
1534;DHT22;760;48.822;9.304;2023-11-22T16:13:57;4.10;99.90
1534;DHT22;760;48.822;9.304;2023-11-22T16:16:23;4.10;99.90
1534;DHT22;760;48.822;9.304;2023-11-22T16:18:48;4.10;99.90
1534;DHT22;760;48.822;9.304;2023-11-22T16:21:14;4.20;99.90
1534;DHT22;760;48.822;9.304;2023-11-22T16:23:39;4.20;99.90
1534;DHT22;760;48.822;9.304;2023-11-22T16:26:05;4.20;99.90
1534;DHT22;760;48.822;9.304;2023-11-22T16:28:32;4.20;99.90
1534;DHT22;760;48.822;9.304;2023-11-22T16:30:59;4.20;99.90
1534;DHT22;760;48.822;9.304;2023-11-22T16:33:25;4.20;99.90
1534;DHT22;760;48.822;9.304;2023-11-22T16:35:50;4.20;99.90
1534;DHT22;760;48.822;9.304;2023-11-22T16:38:16;4.20;99.90
1534;DHT22;760;48.822;9.304;2023-11-22T16:40:42;4.20;99.90
1534;DHT22;760;48.822;9.304;2023-11-22T16:43:08;4.10;99.90
1534;DHT22;760;48.822;9.304;2023-11-22T16:45:34;4.20;99.90
1534;DHT22;760;48.822;9.304;2023-11-22T16:48:00;4.20;99.90
1534;DHT22;760;48.822;9.304;2023-11-22T16:50:26;4.20;99.90
1534;DHT22;760;48.822;9.304;2023-11-22T16:52:52;4.10;99.90
1534;DHT22;760;48.822;9.304;2023-11-22T16:55:18;4.10;99.90
1534;DHT22;760;48.822;9.304;2023-11-22T16:57:44;4.10;99.90
1534;DHT22;760;48.822;9.304;2023-11-22T17:00:10;4.10;99.90
1534;DHT22;760;48.822;9.304;2023-11-22T17:02:48;4.10;99.90
1534;DHT22;760;48.822;9.304;2023-11-22T17:05:17;4.10;99.90
1534;DHT22;760;48.822;9.304;2023-11-22T17:07:44;4.10;99.90
1534;DHT22;760;48.822;9.304;2023-11-22T17:10:09;4.20;99.90
1534;DHT22;760;48.822;9.304;2023-11-22T17:12:37;4.20;99.90
1534;DHT22;760;48.822;9.304;2023-11-22T17:15:03;4.20;99.90
1534;DHT22;760;48.822;9.304;2023-11-22T17:17:30;4.20;99.90
1534;DHT22;760;48.822;9.304;2023-11-22T17:19:56;4.20;99.90
1534;DHT22;760;48.822;9.304;2023-11-22T17:22:22;4.20;99.90
1534;DHT22;760;48.822;9.304;2023-11-22T17:24:47;4.20;99.90
1534;DHT22;760;48.822;9.304;2023-11-22T17:27:14;4.20;99.90
1534;DHT22;760;48.822;9.304;2023-11-22T17:29:39;4.10;99.90
1534;DHT22;760;48.822;9.304;2023-11-22T17:32:05;4.20;99.90
1534;DHT22;760;48.822;9.304;2023-11-22T17:34:32;4.20;99.90
1534;DHT22;760;48.822;9.304;2023-11-22T17:36:58;4.20;99.90
1534;DHT22;760;48.822;9.304;2023-11-22T17:39:24;4.20;99.90
1534;DHT22;760;48.822;9.304;2023-11-22T17:41:50;4.20;99.90
1534;DHT22;760;48.822;9.304;2023-11-22T17:44:16;4.10;99.90
1534;DHT22;760;48.822;9.304;2023-11-22T17:46:42;4.10;99.90
1534;DHT22;760;48.822;9.304;2023-11-22T17:49:11;4.10;99.90
1534;DHT22;760;48.822;9.304;2023-11-22T17:51:40;4.10;99.90
1534;DHT22;760;48.822;9.304;2023-11-22T17:54:11;4.10;99.90
1534;DHT22;760;48.822;9.304;2023-11-22T17:56:37;4.10;99.90
1534;DHT22;760;48.822;9.304;2023-11-22T17:59:03;4.00;99.90
1534;DHT22;760;48.822;9.304;2023-11-22T18:01:31;4.00;99.90
1534;DHT22;760;48.822;9.304;2023-11-22T18:03:58;4.10;99.90
1534;DHT22;760;48.822;9.304;2023-11-22T18:06:24;4.10;99.90
1534;DHT22;760;48.822;9.304;2023-11-22T18:08:49;4.10;99.90
1534;DHT22;760;48.822;9.304;2023-11-22T18:11:15;4.10;99.90
1534;DHT22;760;48.822;9.304;2023-11-22T18:13:42;4.10;99.90
1534;DHT22;760;48.822;9.304;2023-11-22T18:16:08;4.10;99.90
1534;DHT22;760;48.822;9.304;2023-11-22T18:18:33;4.10;99.90
1534;DHT22;760;48.822;9.304;2023-11-22T18:20:59;4.10;99.90
1534;DHT22;760;48.822;9.304;2023-11-22T18:23:24;4.10;99.90
1534;DHT22;760;48.822;9.304;2023-11-22T18:25:51;4.10;99.90
1534;DHT22;760;48.822;9.304;2023-11-22T18:28:17;4.20;99.90
1534;DHT22;760;48.822;9.304;2023-11-22T18:30:43;4.20;99.90
1534;DHT22;760;48.822;9.304;2023-11-22T18:33:09;4.20;99.90
1534;DHT22;760;48.822;9.304;2023-11-22T18:35:35;4.20;99.90
1534;DHT22;760;48.822;9.304;2023-11-22T18:38:01;4.10;99.90
1534;DHT22;760;48.822;9.304;2023-11-22T18:40:27;4.10;99.90
1534;DHT22;760;48.822;9.304;2023-11-22T18:42:52;4.00;99.90
1534;DHT22;760;48.822;9.304;2023-11-22T18:45:18;4.10;99.90
1534;DHT22;760;48.822;9.304;2023-11-22T18:47:43;4.10;99.90
1534;DHT22;760;48.822;9.304;2023-11-22T18:50:13;4.10;99.90
1534;DHT22;760;48.822;9.304;2023-11-22T18:52:39;4.10;99.90
1534;DHT22;760;48.822;9.304;2023-11-22T18:55:05;4.10;99.90
1534;DHT22;760;48.822;9.304;2023-11-22T18:57:31;4.20;99.90
1534;DHT22;760;48.822;9.304;2023-11-22T18:59:56;4.20;99.90
1534;DHT22;760;48.822;9.304;2023-11-22T19:02:22;4.10;99.90
1534;DHT22;760;48.822;9.304;2023-11-22T19:04:48;4.10;99.90
1534;DHT22;760;48.822;9.304;2023-11-22T19:07:13;4.20;99.90
1534;DHT22;760;48.822;9.304;2023-11-22T19:09:40;4.20;99.90
1534;DHT22;760;48.822;9.304;2023-11-22T19:12:06;4.20;99.90
1534;DHT22;760;48.822;9.304;2023-11-22T19:14:31;4.20;99.90
1534;DHT22;760;48.822;9.304;2023-11-22T19:16:57;4.10;99.90
1534;DHT22;760;48.822;9.304;2023-11-22T19:19:23;4.10;99.90
1534;DHT22;760;48.822;9.304;2023-11-22T19:21:49;4.00;99.90
1534;DHT22;760;48.822;9.304;2023-11-22T19:24:16;4.00;99.90
1534;DHT22;760;48.822;9.304;2023-11-22T19:26:41;4.10;99.90
1534;DHT22;760;48.822;9.304;2023-11-22T19:29:08;4.10;99.90
1534;DHT22;760;48.822;9.304;2023-11-22T19:31:35;4.00;99.90
1534;DHT22;760;48.822;9.304;2023-11-22T19:34:01;4.10;99.90
1534;DHT22;760;48.822;9.304;2023-11-22T19:36:27;4.10;99.90
1534;DHT22;760;48.822;9.304;2023-11-22T19:38:57;4.10;99.90
1534;DHT22;760;48.822;9.304;2023-11-22T19:41:24;4.10;99.90
1534;DHT22;760;48.822;9.304;2023-11-22T19:43:50;4.10;99.90
1534;DHT22;760;48.822;9.304;2023-11-22T19:46:16;4.10;99.90
1534;DHT22;760;48.822;9.304;2023-11-22T19:48:42;4.10;99.90
1534;DHT22;760;48.822;9.304;2023-11-22T19:51:08;4.10;99.90
1534;DHT22;760;48.822;9.304;2023-11-22T19:53:35;4.10;99.90
1534;DHT22;760;48.822;9.304;2023-11-22T19:56:02;4.10;99.90
1534;DHT22;760;48.822;9.304;2023-11-22T19:58:28;4.10;99.90
1534;DHT22;760;48.822;9.304;2023-11-22T20:00:55;4.00;99.90
1534;DHT22;760;48.822;9.304;2023-11-22T20:03:21;4.10;99.90
1534;DHT22;760;48.822;9.304;2023-11-22T20:05:47;4.10;99.90
1534;DHT22;760;48.822;9.304;2023-11-22T20:08:13;4.10;99.90
1534;DHT22;760;48.822;9.304;2023-11-22T20:10:40;4.10;99.90
1534;DHT22;760;48.822;9.304;2023-11-22T20:13:06;4.00;99.90
1534;DHT22;760;48.822;9.304;2023-11-22T20:15:32;4.00;99.90
1534;DHT22;760;48.822;9.304;2023-11-22T20:17:57;4.00;99.90
1534;DHT22;760;48.822;9.304;2023-11-22T20:20:26;4.10;99.90
1534;DHT22;760;48.822;9.304;2023-11-22T20:22:53;4.00;99.90
1534;DHT22;760;48.822;9.304;2023-11-22T20:25:19;4.10;99.90
1534;DHT22;760;48.822;9.304;2023-11-22T20:27:44;4.10;99.90
1534;DHT22;760;48.822;9.304;2023-11-22T20:30:10;4.10;99.90
1534;DHT22;760;48.822;9.304;2023-11-22T20:32:36;4.10;99.90
1534;DHT22;760;48.822;9.304;2023-11-22T20:35:02;4.00;99.90
1534;DHT22;760;48.822;9.304;2023-11-22T20:37:28;4.00;99.90